Time;durP1;ratioP1;P1;durP2;ratioP2;P2;SDS_P1;SDS_P2;PMS_P1;PMS_P2;Temp;Humidity;BMP_temperature;BMP_pressure;BME280_temperature;BME280_humidity;BME280_pressure;Samples;Min_cycle;Max_cycle;Signal;HPM_P1;HPM_P2
2022/01/28 00:01:54;;;;;;;4.22;2.83;;;5.00;99.90;;;;;;5013481;28;20038;-90
2022/01/28 00:04:19;;;;;;;5.25;2.97;;;5.10;99.90;;;;;;5002331;28;20065;-90
2022/01/28 00:06:45;;;;;;;3.90;2.80;;;5.10;99.90;;;;;;5039113;28;20025;-92
2022/01/28 00:09:12;;;;;;;4.85;3.22;;;5.10;99.90;;;;;;5040479;28;20042;-91
2022/01/28 00:11:38;;;;;;;4.57;2.92;;;5.10;99.90;;;;;;5022980;28;20029;-87
2022/01/28 00:17:16;;;;;;;3.20;2.17;;;5.10;99.90;;;;;;5015905;28;20069;-88
2022/01/28 00:38:35;;;;;;;3.27;2.17;;;5.30;99.90;;;;;;5008127;28;20123;-86
2022/01/28 00:41:03;;;;;;;2.83;2.25;;;5.40;99.90;;;;;;4990675;28;20030;-88
2022/01/28 00:43:29;;;;;;;3.90;2.40;;;5.40;99.90;;;;;;5009884;28;20034;-88
2022/01/28 00:45:56;;;;;;;2.35;1.88;;;5.40;99.90;;;;;;5024377;28;20025;-88
2022/01/28 00:48:22;;;;;;;4.72;2.78;;;5.40;99.90;;;;;;5019206;28;20053;-87
2022/01/28 00:50:49;;;;;;;3.40;2.30;;;5.40;99.90;;;;;;5019617;28;20038;-87
2022/01/28 00:53:15;;;;;;;3.60;2.40;;;5.40;99.90;;;;;;5019929;28;20366;-89
2022/01/28 00:55:41;;;;;;;2.90;2.08;;;5.40;99.90;;;;;;5019763;28;20122;-87
2022/01/28 00:58:07;;;;;;;3.83;2.15;;;5.40;99.90;;;;;;5018402;28;20030;-90
2022/01/28 01:00:33;;;;;;;3.22;2.30;;;5.40;99.90;;;;;;5019220;28;20058;-89
2022/01/28 01:02:59;;;;;;;3.03;2.13;;;5.40;99.90;;;;;;5005561;28;20121;-88
2022/01/28 01:05:25;;;;;;;5.07;2.50;;;5.30;99.90;;;;;;5102216;23;20083;-88
2022/01/28 01:07:50;;;;;;;2.85;2.17;;;5.30;99.90;;;;;;5043380;28;20108;-88
2022/01/28 01:10:17;;;;;;;3.58;2.47;;;5.30;99.90;;;;;;5028308;28;20025;-88
2022/01/28 01:12:45;;;;;;;3.92;2.65;;;5.30;99.90;;;;;;5053756;28;20009;-88
2022/01/28 01:15:16;;;;;;;8.52;2.47;;;5.20;99.90;;;;;;5039901;28;20060;-88
2022/01/28 01:17:53;;;;;;;4.00;2.70;;;5.20;99.90;;;;;;5059706;28;20033;-86
2022/01/28 01:20:57;;;;;;;5.55;3.03;;;5.10;99.90;;;;;;5059703;28;20031;-88
2022/01/28 01:23:09;;;;;;;3.53;2.50;;;5.10;99.90;;;;;;5059393;28;20033;-88
2022/01/28 01:25:48;;;;;;;4.20;2.42;;;5.10;99.90;;;;;;5042437;28;20047;-89
2022/01/28 01:28:17;;;;;;;4.03;2.53;;;5.10;99.90;;;;;;5057696;28;20099;-89
2022/01/28 01:30:44;;;;;;;4.25;2.90;;;5.10;99.90;;;;;;5037730;28;20045;-88
2022/01/28 01:33:11;;;;;;;3.92;2.28;;;5.10;99.90;;;;;;5044965;28;20041;-88
2022/01/28 01:35:38;;;;;;;3.45;2.47;;;5.20;99.90;;;;;;5036483;28;20033;-87
2022/01/28 01:38:07;;;;;;;3.17;1.95;;;5.20;99.90;;;;;;5039180;28;20018;-88
2022/01/28 01:40:41;;;;;;;2.53;1.98;;;5.20;99.90;;;;;;5022287;28;20029;-87
2022/01/28 01:43:28;;;;;;;3.55;2.00;;;5.20;99.90;;;;;;5029588;28;20034;-86
2022/01/28 01:53:53;;;;;;;3.22;2.20;;;5.20;99.90;;;;;;5035788;28;20432;-87
2022/01/28 01:56:20;;;;;;;3.15;2.10;;;5.20;99.90;;;;;;5048421;28;20025;-86
2022/01/28 01:58:47;;;;;;;3.30;2.50;;;5.20;99.90;;;;;;5032814;28;20033;-88
2022/01/28 02:01:13;;;;;;;3.10;2.35;;;5.20;99.90;;;;;;5044827;28;20036;-87
2022/01/28 02:03:39;;;;;;;3.95;2.10;;;5.10;99.90;;;;;;5010188;28;20088;-88
2022/01/28 02:06:05;;;;;;;3.25;2.30;;;5.10;99.90;;;;;;5022163;28;20046;-87
2022/01/28 02:08:36;;;;;;;4.15;2.70;;;5.10;99.90;;;;;;5121010;27;1287983;-87
2022/01/28 02:11:02;;;;;;;4.32;2.45;;;5.10;99.90;;;;;;5120082;28;20348;-87
2022/01/28 02:13:30;;;;;;;4.30;2.70;;;5.10;99.90;;;;;;5140059;27;20160;-86
2022/01/28 02:15:57;;;;;;;4.88;3.00;;;5.10;99.90;;;;;;5142109;28;20705;-89
2022/01/28 02:18:24;;;;;;;3.45;2.47;;;5.00;99.90;;;;;;5128818;28;20376;-88
2022/01/28 02:20:53;;;;;;;4.63;2.58;;;5.00;99.90;;;;;;5143430;28;20051;-88
2022/01/28 02:23:21;;;;;;;3.58;2.60;;;5.00;99.90;;;;;;5139226;27;20080;-87
2022/01/28 02:25:47;;;;;;;3.90;2.30;;;5.00;99.90;;;;;;5125584;28;20039;-86
2022/01/28 02:28:16;;;;;;;3.78;2.58;;;5.00;99.90;;;;;;5124305;28;20032;-88
2022/01/28 02:30:43;;;;;;;4.35;2.80;;;4.90;99.90;;;;;;5125041;28;20035;-88
2022/01/28 02:33:18;;;;;;;5.70;2.30;;;4.90;99.90;;;;;;5129367;28;20051;-86
2022/01/28 02:35:45;;;;;;;3.45;2.28;;;4.90;99.90;;;;;;5134234;28;20027;-88
2022/01/28 02:38:13;;;;;;;3.13;2.33;;;4.80;99.90;;;;;;5136249;28;20016;-87
2022/01/28 02:40:42;;;;;;;2.92;2.40;;;4.80;99.90;;;;;;5147804;28;20049;-86
2022/01/28 02:45:44;;;;;;;4.18;2.78;;;4.70;99.90;;;;;;5154855;28;20028;-85
2022/01/28 02:48:28;;;;;;;2.83;2.00;;;4.70;99.90;;;;;;5153455;28;20057;-85
2022/01/28 02:53:58;;;;;;;3.20;2.17;;;4.70;99.90;;;;;;5133297;28;20043;-86
2022/01/28 02:58:57;;;;;;;2.88;2.25;;;4.80;99.90;;;;;;5154466;28;20049;-85
2022/01/28 03:01:23;;;;;;;3.33;2.17;;;4.80;99.90;;;;;;5154241;27;20043;-87
2022/01/28 03:03:51;;;;;;;2.30;1.90;;;4.80;99.90;;;;;;5120323;28;20050;-84
2022/01/28 03:06:18;;;;;;;2.80;2.05;;;4.80;99.90;;;;;;5114071;28;20008;-87
2022/01/28 03:09:15;;;;;;;2.72;2.28;;;4.80;99.90;;;;;;5114325;28;20020;-84
2022/01/28 03:19:27;;;;;;;3.38;2.33;;;4.80;99.90;;;;;;5144961;27;20016;-86
2022/01/28 03:21:56;;;;;;;2.95;2.25;;;4.70;99.90;;;;;;5140775;28;20027;-86
2022/01/28 03:24:25;;;;;;;3.08;2.20;;;4.80;99.90;;;;;;5123937;28;20078;-87
2022/01/28 03:26:56;;;;;;;3.97;2.50;;;4.80;99.90;;;;;;5121069;28;20044;-86
2022/01/28 03:29:22;;;;;;;3.25;2.00;;;4.80;99.90;;;;;;5133984;28;20023;-88
2022/01/28 03:31:48;;;;;;;4.25;2.55;;;4.80;99.90;;;;;;5140221;28;20066;-87
2022/01/28 03:34:14;;;;;;;3.65;2.45;;;4.70;99.90;;;;;;5123671;28;20048;-86
2022/01/28 03:36:40;;;;;;;3.38;2.40;;;4.70;99.90;;;;;;5114064;28;20483;-88
2022/01/28 03:39:08;;;;;;;3.03;2.30;;;4.60;99.90;;;;;;5127033;28;20034;-86
2022/01/28 03:41:34;;;;;;;3.40;2.33;;;4.70;99.90;;;;;;5125512;28;20110;-86
2022/01/28 03:44:00;;;;;;;4.55;2.40;;;4.70;99.90;;;;;;5110004;28;20067;-89
2022/01/28 03:46:28;;;;;;;3.13;2.30;;;4.70;99.90;;;;;;5104288;28;20031;-88
2022/01/28 03:48:56;;;;;;;3.85;2.35;;;4.70;99.90;;;;;;5115918;28;20024;-88
2022/01/28 03:51:22;;;;;;;4.20;2.30;;;4.80;99.90;;;;;;5119175;28;20031;-88
2022/01/28 03:53:49;;;;;;;5.47;2.53;;;4.80;99.90;;;;;;5119828;28;20108;-86
2022/01/28 03:56:16;;;;;;;3.45;2.42;;;4.90;99.90;;;;;;5119462;28;20062;-85
2022/01/28 03:58:42;;;;;;;3.75;1.98;;;4.90;99.90;;;;;;5128475;28;20051;-86
2022/01/28 04:01:23;;;;;;;4.82;2.15;;;4.90;99.90;;;;;;5139889;28;20087;-86
2022/01/28 04:11:27;;;;;;;3.03;2.05;;;4.90;99.90;;;;;;5119308;28;20095;-87
2022/01/28 04:11:57;;;;;;;2.58;1.90;;;4.90;99.90;;;;;;5117475;28;20036;-85
2022/01/28 04:19:40;;;;;;;3.85;2.33;;;4.90;99.90;;;;;;5116701;28;20107;-87
2022/01/28 04:22:05;;;;;;;3.25;2.17;;;4.90;99.90;;;;;;5115199;28;20039;-88
2022/01/28 04:24:31;;;;;;;3.10;2.17;;;4.90;99.90;;;;;;5126453;28;20035;-87
2022/01/28 04:26:58;;;;;;;2.90;2.20;;;5.00;99.90;;;;;;5131561;28;20085;-85
2022/01/28 04:29:24;;;;;;;3.53;2.00;;;5.00;99.90;;;;;;5134880;28;20052;-84
2022/01/28 04:31:50;;;;;;;5.63;2.50;;;5.00;99.90;;;;;;5130665;28;20024;-86
2022/01/28 04:34:19;;;;;;;3.65;2.53;;;5.00;99.90;;;;;;5098458;28;20139;-86
2022/01/28 04:37:12;;;;;;;6.68;2.83;;;5.00;99.90;;;;;;5093457;28;20072;-86
2022/01/28 04:39:57;;;;;;;4.47;2.28;;;5.00;99.90;;;;;;5094496;28;20032;-84
2022/01/28 04:48:15;;;;;;;2.70;2.17;;;5.00;99.90;;;;;;5086958;28;20037;-88
2022/01/28 04:53:29;;;;;;;4.32;2.40;;;5.10;99.90;;;;;;5092381;28;20016;-88
2022/01/28 05:15:28;;;;;;;4.63;2.20;;;5.40;99.90;;;;;;5133023;28;20051;-88
2022/01/28 05:23:19;;;;;;;5.05;2.90;;;5.30;99.90;;;;;;5115985;28;20465;-87
2022/01/28 05:28:18;;;;;;;5.15;3.05;;;5.20;99.90;;;;;;5122031;28;20148;-88
2022/01/28 05:30:43;;;;;;;6.18;4.18;;;5.10;99.90;;;;;;5115443;28;20020;-89
2022/01/28 05:33:09;;;;;;;6.70;3.30;;;5.00;99.90;;;;;;5104203;28;20047;-90
2022/01/28 05:35:35;;;;;;;4.68;3.20;;;5.00;99.90;;;;;;5123058;28;20023;-88
2022/01/28 05:38:01;;;;;;;5.63;3.22;;;5.00;99.90;;;;;;5084988;28;20032;-89
2022/01/28 05:40:26;;;;;;;5.65;3.40;;;5.10;99.90;;;;;;5108959;28;20043;-88
2022/01/28 05:42:52;;;;;;;6.70;3.63;;;5.10;99.90;;;;;;5106970;28;20036;-89
2022/01/28 05:45:18;;;;;;;4.30;2.90;;;5.20;99.90;;;;;;5125719;28;20066;-87
2022/01/28 05:47:44;;;;;;;7.32;3.42;;;5.20;99.90;;;;;;5124400;28;20061;-89
2022/01/28 05:50:12;;;;;;;5.88;3.50;;;5.20;99.90;;;;;;5129556;28;20045;-88
2022/01/28 05:52:37;;;;;;;4.65;2.92;;;5.20;99.90;;;;;;5115308;28;20095;-90
2022/01/28 05:55:04;;;;;;;6.82;3.00;;;5.30;99.90;;;;;;5115092;28;20046;-89
2022/01/28 05:57:30;;;;;;;4.65;2.90;;;5.20;99.90;;;;;;5108024;28;20044;-89
2022/01/28 05:59:56;;;;;;;4.40;2.83;;;5.30;99.90;;;;;;5106295;28;20083;-89
2022/01/28 06:02:21;;;;;;;5.80;2.75;;;5.30;99.90;;;;;;5130440;28;20032;-88
2022/01/28 06:04:47;;;;;;;7.35;2.85;;;5.30;99.90;;;;;;5115102;28;20062;-87
2022/01/28 06:07:13;;;;;;;4.75;2.47;;;5.30;99.90;;;;;;5107788;28;20446;-88
2022/01/28 06:09:39;;;;;;;6.05;2.72;;;5.20;99.90;;;;;;5093930;28;20080;-88
2022/01/28 06:12:06;;;;;;;6.15;3.40;;;5.20;99.90;;;;;;5111800;28;20043;-89
2022/01/28 06:14:31;;;;;;;7.03;2.30;;;5.10;99.90;;;;;;5125348;28;20052;-87
2022/01/28 06:16:57;;;;;;;5.78;2.47;;;5.10;99.90;;;;;;5127913;28;20070;-88
2022/01/28 06:19:23;;;;;;;6.05;2.38;;;5.10;99.90;;;;;;5116697;28;20016;-88
2022/01/28 06:21:49;;;;;;;6.72;2.72;;;5.10;99.90;;;;;;5134255;28;20038;-87
2022/01/28 06:24:14;;;;;;;4.82;1.55;;;5.20;99.90;;;;;;5134352;28;20123;-87
2022/01/28 06:26:41;;;;;;;6.38;1.40;;;5.20;99.90;;;;;;5131665;28;20048;-86
2022/01/28 06:29:07;;;;;;;2.47;1.70;;;5.20;99.90;;;;;;5131225;28;20024;-89
2022/01/28 06:31:33;;;;;;;2.30;1.13;;;5.30;99.90;;;;;;5112652;28;20170;-87
2022/01/28 06:33:59;;;;;;;3.05;1.40;;;5.40;99.90;;;;;;5109042;28;20016;-89
2022/01/28 06:36:24;;;;;;;4.43;2.13;;;5.40;99.90;;;;;;5108358;28;20026;-89
2022/01/28 06:38:50;;;;;;;4.75;2.25;;;5.40;99.90;;;;;;5108623;28;20034;-86
2022/01/28 06:41:17;;;;;;;4.95;2.10;;;5.30;99.90;;;;;;5120611;28;20028;-88
2022/01/28 06:43:42;;;;;;;3.38;1.95;;;5.40;99.90;;;;;;5126493;28;20020;-87
2022/01/28 06:46:08;;;;;;;4.35;1.70;;;5.30;99.90;;;;;;5107078;28;20028;-87
2022/01/28 06:48:34;;;;;;;3.63;1.80;;;5.30;99.90;;;;;;5103359;28;20052;-89
2022/01/28 06:51:00;;;;;;;4.88;1.75;;;5.20;99.90;;;;;;5105563;28;20028;-87
2022/01/28 06:53:26;;;;;;;4.15;1.88;;;5.20;99.90;;;;;;5106279;28;20024;-89
2022/01/28 06:55:53;;;;;;;3.58;1.83;;;5.10;99.90;;;;;;5109837;28;20032;-89
2022/01/28 06:58:19;;;;;;;3.83;1.67;;;5.10;99.90;;;;;;5091998;28;20015;-89
2022/01/28 07:00:45;;;;;;;4.15;1.83;;;5.10;99.90;;;;;;5120163;28;20100;-87
2022/01/28 07:03:12;;;;;;;4.63;2.00;;;5.10;99.90;;;;;;5133774;28;20180;-89
2022/01/28 07:05:39;;;;;;;2.58;1.50;;;5.10;99.90;;;;;;5099540;22;20108;-87
2022/01/28 07:08:05;;;;;;;3.40;1.23;;;5.30;99.90;;;;;;5058381;28;20134;-88
2022/01/28 07:10:32;;;;;;;2.97;1.50;;;5.30;99.90;;;;;;5057271;28;20021;-88
2022/01/28 07:12:58;;;;;;;1.85;1.20;;;5.30;99.90;;;;;;5058324;28;20025;-87
2022/01/28 07:15:25;;;;;;;1.10;1.05;;;5.30;99.90;;;;;;5058693;28;20060;-88
2022/01/28 07:17:53;;;;;;;1.38;1.10;;;5.30;99.90;;;;;;5056975;28;20033;-88
2022/01/28 07:20:19;;;;;;;5.50;1.13;;;5.30;99.90;;;;;;5051876;28;20050;-87
2022/01/28 07:22:45;;;;;;;1.67;0.98;;;5.30;99.90;;;;;;5022733;28;20018;-86
2022/01/28 07:25:11;;;;;;;2.30;0.98;;;5.30;99.90;;;;;;5042218;28;20022;-83
2022/01/28 07:27:37;;;;;;;2.47;1.17;;;5.30;99.90;;;;;;5038427;28;20143;-86
2022/01/28 07:30:05;;;;;;;2.88;1.30;;;5.40;99.90;;;;;;5037176;28;20014;-83
2022/01/28 07:32:31;;;;;;;2.35;1.33;;;5.40;99.90;;;;;;5033607;28;20017;-87
2022/01/28 07:34:57;;;;;;;1.88;1.30;;;5.40;99.90;;;;;;5039248;28;20042;-85
2022/01/28 07:37:23;;;;;;;2.50;1.20;;;5.50;99.90;;;;;;5039592;28;20026;-86
2022/01/28 07:39:50;;;;;;;3.67;1.23;;;5.50;99.90;;;;;;5040038;28;20037;-86
2022/01/28 07:42:17;;;;;;;2.00;1.20;;;5.50;99.90;;;;;;5038784;28;20045;-85
2022/01/28 07:44:43;;;;;;;0.80;0.80;;;5.60;99.90;;;;;;5039328;28;20108;-85
2022/01/28 07:47:09;;;;;;;4.00;0.98;;;5.60;99.90;;;;;;5039743;28;20256;-84
2022/01/28 07:49:35;;;;;;;3.90;0.73;;;5.70;99.90;;;;;;5038793;28;20033;-87
2022/01/28 07:52:01;;;;;;;1.35;0.80;;;5.80;99.90;;;;;;5037969;28;20049;-86
2022/01/28 07:54:27;;;;;;;4.65;0.75;;;5.80;99.90;;;;;;5026797;28;20136;-84
2022/01/28 07:56:54;;;;;;;0.90;0.73;;;5.90;99.90;;;;;;5038910;28;20029;-87
2022/01/28 07:59:21;;;;;;;1.15;0.68;;;6.00;99.90;;;;;;5038615;28;20026;-86
2022/01/28 08:01:47;;;;;;;1.27;0.88;;;6.00;99.90;;;;;;5038541;28;20033;-87
2022/01/28 08:04:14;;;;;;;3.20;0.88;;;6.00;99.90;;;;;;5037975;28;20021;-85
2022/01/28 08:06:41;;;;;;;0.52;0.50;;;6.10;99.90;;;;;;5034653;28;20097;-89
2022/01/28 08:09:07;;;;;;;1.13;0.68;;;6.20;99.90;;;;;;5037194;28;20045;-86
2022/01/28 08:11:34;;;;;;;1.63;0.75;;;6.20;99.90;;;;;;5014817;28;20081;-88
2022/01/28 08:14:02;;;;;;;1.98;0.77;;;6.30;99.90;;;;;;5033875;28;20044;-87
2022/01/28 08:16:28;;;;;;;1.83;0.75;;;6.30;99.90;;;;;;5035903;28;20014;-88
2022/01/28 08:18:53;;;;;;;3.42;1.20;;;6.50;99.90;;;;;;5039249;28;20049;-88
2022/01/28 08:21:20;;;;;;;5.90;1.40;;;6.50;99.90;;;;;;5021524;28;20041;-87
2022/01/28 08:23:52;;;;;;;2.97;1.10;;;6.60;99.90;;;;;;5037704;28;20077;-85
2022/01/28 08:26:19;;;;;;;1.77;1.05;;;6.60;99.90;;;;;;5037913;28;20018;-89
2022/01/28 08:28:45;;;;;;;3.13;0.63;;;6.70;99.90;;;;;;5038508;28;20049;-87
2022/01/28 08:31:10;;;;;;;5.13;0.80;;;6.70;99.90;;;;;;5018911;28;20033;-88
2022/01/28 08:33:36;;;;;;;2.75;0.80;;;6.90;99.90;;;;;;5020163;28;20026;-89
2022/01/28 08:36:02;;;;;;;2.97;0.80;;;6.90;99.90;;;;;;5036213;28;20029;-88
2022/01/28 08:38:35;;;;;;;1.75;0.63;;;6.90;99.90;;;;;;5035849;28;20093;-88
2022/01/28 08:41:02;;;;;;;1.75;0.73;;;7.00;99.90;;;;;;5033112;28;20030;-85
2022/01/28 08:43:28;;;;;;;2.75;0.70;;;7.10;99.90;;;;;;5031687;28;20014;-86
2022/01/28 08:45:55;;;;;;;2.58;0.93;;;7.10;99.90;;;;;;5033334;28;20026;-89
2022/01/28 08:48:21;;;;;;;5.20;0.68;;;7.30;99.90;;;;;;5031654;28;20054;-88
2022/01/28 08:50:47;;;;;;;2.80;0.90;;;7.40;99.90;;;;;;5031660;28;20048;-88
2022/01/28 08:53:13;;;;;;;1.75;0.60;;;7.50;99.60;;;;;;5027242;28;20133;-86
2022/01/28 08:55:39;;;;;;;4.10;0.88;;;7.40;98.90;;;;;;5029023;28;20018;-88
2022/01/28 08:58:07;;;;;;;3.35;0.90;;;7.20;98.20;;;;;;5029556;28;20405;-88
2022/01/28 09:00:38;;;;;;;5.60;0.90;;;7.00;98.50;;;;;;5043385;28;20068;-89
2022/01/28 09:03:10;;;;;;;6.03;0.90;;;7.10;98.90;;;;;;5029494;28;20101;-84
2022/01/28 09:05:39;;;;;;;4.00;0.70;;;7.10;98.00;;;;;;5031172;28;20030;-86
2022/01/28 09:08:08;;;;;;;3.15;0.90;;;7.10;97.80;;;;;;5028694;28;20109;-88
2022/01/28 09:10:42;;;;;;;6.63;0.93;;;7.20;97.70;;;;;;5018104;28;20042;-87
2022/01/28 09:13:21;;;;;;;11.80;1.30;;;7.20;97.60;;;;;;5031706;28;20036;-86
2022/01/28 09:15:47;;;;;;;5.68;1.65;;;7.20;97.60;;;;;;5034786;28;20117;-85
2022/01/28 09:18:13;;;;;;;4.45;0.93;;;7.20;97.40;;;;;;5027337;28;20022;-87
2022/01/28 09:20:40;;;;;;;4.68;1.08;;;7.30;97.40;;;;;;5028526;28;20044;-87
2022/01/28 09:23:12;;;;;;;1.67;0.90;;;7.30;97.60;;;;;;5022535;28;20014;-87
2022/01/28 09:25:38;;;;;;;4.38;1.33;;;7.20;97.80;;;;;;5013922;28;20121;-87
2022/01/28 09:28:05;;;;;;;1.88;0.95;;;7.40;97.90;;;;;;5030436;28;20021;-85
2022/01/28 09:30:32;;;;;;;3.08;0.82;;;7.90;97.40;;;;;;5037937;28;20045;-87
2022/01/28 09:32:58;;;;;;;3.92;1.13;;;8.20;97.00;;;;;;5029729;28;20016;-87
2022/01/28 09:35:25;;;;;;;2.08;0.80;;;8.20;96.70;;;;;;5029768;28;20061;-86
2022/01/28 09:37:52;;;;;;;4.88;0.82;;;9.20;95.80;;;;;;5027903;28;20131;-85
2022/01/28 09:40:19;;;;;;;4.28;0.80;;;10.80;93.30;;;;;;5034877;28;20029;-86
2022/01/28 09:42:47;;;;;;;2.33;0.60;;;11.90;90.50;;;;;;5022979;28;20053;-86
2022/01/28 09:45:20;;;;;;;3.60;0.88;;;12.20;86.40;;;;;;5016610;28;20173;-88
2022/01/28 09:47:46;;;;;;;2.28;1.17;;;13.20;83.10;;;;;;5030821;28;20214;-86
2022/01/28 09:50:13;;;;;;;2.63;1.00;;;13.40;78.40;;;;;;5014329;28;20081;-87
2022/01/28 09:52:40;;;;;;;5.47;2.50;;;12.80;77.80;;;;;;5012866;28;20089;-86
2022/01/28 09:55:06;;;;;;;4.55;1.33;;;12.30;78.50;;;;;;5034975;28;20041;-88
2022/01/28 09:57:32;;;;;;;2.95;0.65;;;11.90;79.10;;;;;;5027796;28;20057;-87
2022/01/28 10:00:01;;;;;;;4.18;1.02;;;11.50;78.70;;;;;;5028599;28;20033;-88
2022/01/28 10:02:51;;;;;;;2.10;0.80;;;11.60;78.00;;;;;;5029182;28;20036;-88
2022/01/28 10:05:39;;;;;;;1.40;0.60;;;11.90;78.90;;;;;;5043611;28;20057;-87
2022/01/28 10:08:17;;;;;;;1.77;0.80;;;12.50;76.50;;;;;;5017023;28;20034;-88
2022/01/28 10:10:44;;;;;;;8.35;1.13;;;12.00;77.70;;;;;;5030910;28;20497;-88
2022/01/28 10:13:53;;;;;;;2.35;0.90;;;11.10;79.60;;;;;;5032321;28;20014;-88
2022/01/28 10:16:25;;;;;;;2.05;1.02;;;9.90;83.40;;;;;;5034876;28;20038;-87
2022/01/28 10:19:05;;;;;;;5.10;0.80;;;9.40;87.40;;;;;;5031668;28;20034;-87
2022/01/28 10:21:43;;;;;;;4.22;0.90;;;8.90;90.50;;;;;;5040736;28;20086;-87
2022/01/28 10:24:28;;;;;;;6.57;1.77;;;8.30;92.10;;;;;;5037471;28;20094;-88
2022/01/28 10:26:55;;;;;;;4.78;0.90;;;8.00;92.50;;;;;;5036765;28;20033;-87
2022/01/28 10:29:32;;;;;;;3.30;0.70;;;8.20;92.60;;;;;;5039284;28;20028;-87
2022/01/28 10:32:11;;;;;;;4.97;1.00;;;8.50;92.50;;;;;;5041188;28;20087;-87
2022/01/28 10:34:40;;;;;;;3.30;1.05;;;9.10;92.00;;;;;;5039900;28;20030;-87
2022/01/28 10:37:19;;;;;;;7.30;0.90;;;9.70;91.70;;;;;;5040407;28;20025;-87
2022/01/28 10:40:11;;;;;;;2.40;0.90;;;9.90;91.20;;;;;;5038173;28;20033;-88
2022/01/28 10:42:40;;;;;;;3.17;0.82;;;10.00;91.50;;;;;;5023537;28;20027;-86
2022/01/28 10:45:15;;;;;;;2.28;0.80;;;9.90;91.20;;;;;;5019725;28;20022;-86
2022/01/28 10:47:53;;;;;;;;;;;9.40;91.30;;;;;;5040239;28;20030;-89
2022/01/28 10:50:20;;;;;;;4.18;0.93;;;9.30;91.50;;;;;;5040824;28;19920;-85
2022/01/28 10:52:56;;;;;;;2.75;0.88;;;9.50;90.80;;;;;;5038121;28;20026;-87
2022/01/28 10:55:22;;;;;;;5.18;0.75;;;9.30;90.80;;;;;;5012158;28;20038;-86
2022/01/28 10:58:08;;;;;;;1.48;0.70;;;9.00;91.60;;;;;;5018675;28;20149;-85
2022/01/28 11:00:43;;;;;;;2.50;0.60;;;8.60;92.30;;;;;;4993443;28;20042;-86
2022/01/28 11:03:11;;;;;;;0.88;0.60;;;8.50;92.80;;;;;;5026414;28;20038;-88
2022/01/28 11:05:43;;;;;;;2.50;0.77;;;8.10;93.20;;;;;;5029559;28;20026;-87
2022/01/28 11:08:12;;;;;;;2.38;0.80;;;7.80;93.70;;;;;;5028422;28;20030;-87
2022/01/28 11:10:39;;;;;;;1.00;0.60;;;8.10;94.30;;;;;;5028812;28;20018;-86
2022/01/28 11:13:05;;;;;;;3.40;0.63;;;9.70;92.20;;;;;;5039893;28;20030;-85
2022/01/28 11:15:35;;;;;;;2.97;1.10;;;10.80;90.70;;;;;;5040068;28;20017;-89
2022/01/28 11:18:05;;;;;;;2.70;1.10;;;11.60;88.60;;;;;;5031747;28;20053;-88
2022/01/28 11:21:04;;;;;;;3.75;1.48;;;12.10;85.40;;;;;;5038033;28;20022;-89
2022/01/28 11:23:59;;;;;;;3.55;1.05;;;12.20;84.40;;;;;;5013100;28;20134;-92
2022/01/28 11:26:37;;;;;;;;;;;12.10;84.40;;;;;;4998464;28;20026;-90
2022/01/28 11:29:19;;;;;;;4.80;1.08;;;12.70;82.80;;;;;;5022567;28;19932;-90
2022/01/28 11:32:17;;;;;;;7.95;1.20;;;12.60;81.00;;;;;;5030721;28;20081;-92
2022/01/28 11:34:58;;;;;;;3.67;1.10;;;12.90;80.70;;;;;;5009778;28;20526;-91
2022/01/28 11:37:47;;;;;;;5.38;1.15;;;13.20;79.20;;;;;;5016988;28;20018;-92
2022/01/28 11:40:24;;;;;;;7.95;0.90;;;12.70;79.20;;;;;;5027663;28;20402;-94
2022/01/28 11:43:15;;;;;;;2.67;1.00;;;12.00;80.10;;;;;;5102567;22;20051;-92
2022/01/28 11:45:45;;;;;;;5.97;0.80;;;11.80;81.20;;;;;;5040977;28;20022;-91
2022/01/28 11:48:11;;;;;;;2.95;0.88;;;12.10;80.60;;;;;;5037936;28;20045;-91
2022/01/28 11:56:03;;;;;;;4.03;1.00;;;11.50;81.30;;;;;;4210227;26;20045;-87
2022/01/28 11:58:59;;;;;;;5.75;1.10;;;11.20;81.40;;;;;;5027587;28;20044;-89
2022/01/28 12:01:38;;;;;;;4.65;1.00;;;11.00;81.50;;;;;;5020246;28;20029;-87
2022/01/28 12:04:31;;;;;;;5.88;0.85;;;10.50;81.50;;;;;;5027279;28;20088;-89
2022/01/28 12:07:13;;;;;;;1.42;0.80;;;10.10;83.30;;;;;;5016261;28;20030;-90
2022/01/28 12:09:41;;;;;;;5.13;0.82;;;9.80;83.40;;;;;;5021559;28;20030;-89
2022/01/28 12:12:10;;;;;;;2.35;0.98;;;9.20;85.00;;;;;;5003420;28;20023;-90
2022/01/28 12:14:59;;;;;;;2.63;0.85;;;9.10;85.60;;;;;;5027511;28;20037;-92
2022/01/28 12:17:36;;;;;;;2.38;0.98;;;9.00;85.20;;;;;;5028008;28;20041;-91
2022/01/28 12:20:19;;;;;;;3.00;0.98;;;8.70;86.00;;;;;;5013229;28;20018;-91
2022/01/28 12:23:10;;;;;;;7.95;0.82;;;8.50;86.50;;;;;;5014520;28;20056;-92
2022/01/28 12:25:41;;;;;;;;;;;8.30;87.10;;;;;;5020710;28;20045;-91
2022/01/28 12:28:16;;;;;;;4.78;1.10;;;8.10;88.20;;;;;;5017324;28;19924;-90
2022/01/28 12:30:45;;;;;;;5.07;1.90;;;8.00;87.90;;;;;;5020055;28;20033;-88
2022/01/28 12:33:11;;;;;;;6.65;1.33;;;8.00;88.50;;;;;;5027854;28;20014;-87
2022/01/28 12:35:38;;;;;;;3.40;1.00;;;7.90;89.00;;;;;;5022776;28;20045;-88
2022/01/28 12:38:05;;;;;;;5.18;1.20;;;7.90;89.60;;;;;;5021558;28;20544;-88
2022/01/28 12:40:36;;;;;;;4.63;1.20;;;7.80;90.00;;;;;;5020919;28;20022;-88
2022/01/28 12:43:07;;;;;;;6.82;1.20;;;7.70;90.30;;;;;;5025180;28;20048;-90
2022/01/28 12:45:35;;;;;;;3.63;0.95;;;7.60;90.60;;;;;;5008662;28;20036;-90
2022/01/28 12:48:01;;;;;;;2.20;1.00;;;7.60;91.00;;;;;;5026814;28;20785;-92
2022/01/28 12:50:32;;;;;;;5.43;1.20;;;7.50;91.50;;;;;;5009099;28;20034;-91
2022/01/28 12:52:59;;;;;;;2.33;0.80;;;7.50;91.80;;;;;;5010184;28;20026;-92
2022/01/28 12:55:33;;;;;;;2.25;0.85;;;7.30;92.10;;;;;;5017921;28;20081;-91
2022/01/28 13:09:23;;;;;;;2.57;0.90;;;7.20;92.80;;;;;;4973345;28;20045;-85
2022/01/28 13:11:55;;;;;;;3.85;1.30;;;7.20;92.90;;;;;;4956438;29;20036;-87
2022/01/28 13:14:32;;;;;;;4.10;0.88;;;7.10;92.80;;;;;;4993948;28;20096;-86
2022/01/28 13:17:01;;;;;;;7.05;1.02;;;7.10;93.00;;;;;;4990223;28;20015;-88
2022/01/28 13:19:29;;;;;;;1.80;0.85;;;7.10;92.90;;;;;;4967139;28;20042;-85
2022/01/28 13:21:55;;;;;;;6.03;2.10;;;7.20;92.80;;;;;;4974853;28;20031;-86
2022/01/28 13:24:23;;;;;;;6.00;1.67;;;7.20;92.90;;;;;;4986205;28;20018;-86
2022/01/28 13:27:07;;;;;;;4.32;1.00;;;7.30;92.70;;;;;;4983679;28;20466;-86
2022/01/28 13:29:36;;;;;;;7.50;1.42;;;7.30;92.70;;;;;;4976587;28;20090;-86
2022/01/28 13:32:05;;;;;;;5.53;1.65;;;7.30;92.90;;;;;;4995957;28;20010;-86
2022/01/28 13:34:48;;;;;;;11.57;3.03;;;7.40;92.90;;;;;;4991317;28;20479;-87
2022/01/28 13:37:57;;;;;;;6.38;1.40;;;7.50;93.00;;;;;;4972598;28;20042;-86
2022/01/28 13:40:29;;;;;;;7.43;1.50;;;7.40;92.90;;;;;;4972877;28;20039;-88
2022/01/28 13:43:06;;;;;;;9.63;1.52;;;7.40;93.00;;;;;;5003956;23;20032;-87
2022/01/28 13:45:54;;;;;;;3.83;1.15;;;7.30;93.00;;;;;;4962663;28;20690;-89
2022/01/28 13:48:39;;;;;;;6.07;1.65;;;7.30;93.20;;;;;;4954715;28;20075;-87
2022/01/28 13:51:08;;;;;;;;;;;7.20;93.30;;;;;;4953647;28;20028;-87
2022/01/28 13:56:35;;;;;;;3.40;1.30;;;7.10;93.80;;;;;;4950397;28;20035;-86
2022/01/28 13:59:29;;;;;;;5.43;1.10;;;7.10;93.70;;;;;;4948102;29;20031;-87
2022/01/28 14:01:59;;;;;;;4.28;1.35;;;7.00;93.90;;;;;;4938167;29;20024;-85
2022/01/28 14:04:37;;;;;;;3.95;1.52;;;7.00;94.00;;;;;;4901887;29;20106;-86
2022/01/28 14:07:14;;;;;;;4.50;1.42;;;7.00;94.00;;;;;;4934340;29;20036;-87
2022/01/28 14:09:50;;;;;;;2.72;1.10;;;7.00;93.90;;;;;;4920910;29;20024;-86
2022/01/28 14:12:31;;;;;;;4.95;0.90;;;7.00;93.90;;;;;;4915450;29;20037;-84
2022/01/28 14:15:10;;;;;;;3.60;1.10;;;6.90;94.00;;;;;;4923857;28;20039;-86
2022/01/28 14:17:37;;;;;;;3.85;1.40;;;6.90;94.20;;;;;;4937763;28;20076;-86
2022/01/28 14:20:04;;;;;;;8.48;1.70;;;6.80;94.30;;;;;;4929884;29;20396;-86
2022/01/28 14:22:29;;;;;;;4.95;1.00;;;6.80;94.40;;;;;;4928143;29;20041;-87
2022/01/28 14:24:57;;;;;;;2.08;1.10;;;6.70;94.50;;;;;;4918127;29;20048;-85
2022/01/28 14:29:55;;;;;;;5.63;0.90;;;6.70;94.90;;;;;;4928954;29;20167;-86
2022/01/28 14:32:23;;;;;;;6.78;1.88;;;6.70;94.90;;;;;;4927870;29;20088;-87
2022/01/28 14:34:54;;;;;;;5.68;1.20;;;6.70;95.10;;;;;;4924422;29;20397;-85
2022/01/28 14:37:22;;;;;;;10.57;1.35;;;6.70;95.10;;;;;;4934540;29;20035;-86
2022/01/28 14:39:48;;;;;;;4.28;1.13;;;6.70;95.20;;;;;;4931218;29;20020;-87
2022/01/28 14:42:15;;;;;;;5.57;1.25;;;6.70;95.30;;;;;;4929575;29;20033;-87
2022/01/28 14:44:44;;;;;;;8.68;1.17;;;6.70;95.20;;;;;;4934996;29;20127;-87
2022/01/28 14:47:11;;;;;;;5.18;1.20;;;6.70;95.10;;;;;;4916167;29;20029;-87
2022/01/28 14:49:37;;;;;;;3.22;1.05;;;6.70;95.20;;;;;;4930768;29;20046;-88
2022/01/28 14:52:08;;;;;;;6.68;1.23;;;6.70;95.50;;;;;;4917391;29;20025;-86
2022/01/28 14:54:34;;;;;;;9.23;1.40;;;6.60;95.60;;;;;;4932130;29;20040;-88
2022/01/28 14:57:03;;;;;;;6.22;1.10;;;6.70;95.50;;;;;;4923644;29;20055;-87
2022/01/28 14:59:29;;;;;;;6.10;1.33;;;6.70;95.50;;;;;;4946948;29;20046;-86
2022/01/28 15:01:55;;;;;;;6.07;1.35;;;6.70;95.30;;;;;;4942838;29;20028;-86
2022/01/28 15:04:21;;;;;;;6.45;1.10;;;6.70;95.40;;;;;;4921717;29;20102;-87
2022/01/28 15:06:47;;;;;;;5.45;1.70;;;6.60;95.20;;;;;;4907644;29;20024;-86
2022/01/28 15:09:15;;;;;;;4.57;1.38;;;6.50;95.10;;;;;;4935383;29;20019;-86